createdAt,value
2019-03-27T00:01:27.339Z,6.2
2019-03-27T00:03:41.354Z,6.2
2019-03-27T00:05:56.515Z,5.9
2019-03-27T00:08:10.525Z,6.2
2019-03-27T00:10:26.016Z,6.4
2019-03-27T00:12:49.142Z,6
2019-03-27T00:15:12.459Z,6.9
2019-03-27T00:17:19.048Z,6.8
2019-03-27T00:19:33.294Z,6.4
2019-03-27T00:21:47.319Z,6.1
2019-03-27T00:24:01.330Z,5.7
2019-03-27T00:26:17.244Z,5.6
2019-03-27T00:28:32.073Z,6.1
2019-03-27T00:30:47.076Z,6.4
2019-03-27T00:33:02.972Z,5.8
2019-03-27T00:35:16.992Z,6.4
2019-03-27T00:37:32.946Z,6.1
2019-03-27T00:39:46.889Z,6
2019-03-27T00:42:02.919Z,6.5
2019-03-27T00:44:21.500Z,6.6
2019-03-27T00:46:35.308Z,6.3
2019-03-27T00:48:49.343Z,6.6
2019-03-27T00:51:04.454Z,6.3
2019-03-27T00:53:18.480Z,7.1
2019-03-27T00:55:33.978Z,6.7
2019-03-27T00:57:49.052Z,6.7
2019-03-27T01:00:03.047Z,6.5
2019-03-27T01:02:17.162Z,6.9
2019-03-27T01:04:31.192Z,6.3
2019-03-27T01:06:46.618Z,6.6
2019-03-27T01:09:08.669Z,6.3
2019-03-27T01:11:23.580Z,6.5
2019-03-27T01:13:36.670Z,6.2
2019-03-27T01:15:50.954Z,6.6
2019-03-27T01:18:04.953Z,6.5
2019-03-27T01:20:18.949Z,7.2
2019-03-27T01:22:34.504Z,6.4
2019-03-27T01:24:58.453Z,7.1
2019-03-27T01:27:12.779Z,6.7
2019-03-27T01:29:34.937Z,7.4
2019-03-27T01:31:49.579Z,6.8
2019-03-27T01:34:04.678Z,6.5
2019-03-27T01:36:21.940Z,7.5
2019-03-27T01:38:36.688Z,6.9
2019-03-27T01:40:50.627Z,6.9
2019-03-27T01:43:04.606Z,8
2019-03-27T01:45:18.645Z,7.1
2019-03-27T01:47:34.078Z,7.9
2019-03-27T01:49:48.092Z,7.2
2019-03-27T01:52:02.121Z,7.5
2019-03-27T01:54:16.884Z,8.2
2019-03-27T01:56:30.862Z,7.9
2019-03-27T01:58:43.861Z,7.7
2019-03-27T02:00:58.435Z,7.2
2019-03-27T02:03:12.445Z,7.9
2019-03-27T02:05:26.427Z,7.5
2019-03-27T02:07:49.684Z,7.4
2019-03-27T02:10:03.793Z,7.1
2019-03-27T02:12:18.594Z,7.4
2019-03-27T02:14:41.913Z,7.3
2019-03-27T02:16:56.381Z,7.2
2019-03-27T02:19:14.023Z,7.1
2019-03-27T02:21:29.640Z,7.2
2019-03-27T02:23:55.528Z,7.2
2019-03-27T02:26:19.753Z,7.4
2019-03-27T02:28:33.766Z,7.6
2019-03-27T02:30:46.897Z,7.3
2019-03-27T02:33:02.480Z,7
2019-03-27T02:35:15.784Z,7.6
2019-03-27T02:37:29.741Z,7.1
2019-03-27T02:39:44.502Z,7
2019-03-27T02:41:59.489Z,7.8
2019-03-27T02:44:16.094Z,7.9
2019-03-27T02:46:29.110Z,8.1
2019-03-27T02:48:43.037Z,8.3
2019-03-27T02:50:57.015Z,7.8
2019-03-27T02:53:12.471Z,8
2019-03-27T02:55:28.098Z,7.9
2019-03-27T02:57:42.616Z,7.9
2019-03-27T02:59:56.615Z,8.1
2019-03-27T03:02:10.801Z,8.9
2019-03-27T03:04:24.774Z,8.5
2019-03-27T03:06:38.958Z,8.3
2019-03-27T03:08:56.051Z,8.5
2019-03-27T03:11:11.594Z,8.8
2019-03-27T03:13:25.595Z,9.3
2019-03-27T03:15:38.657Z,9.6
2019-03-27T03:17:52.858Z,10.1
2019-03-27T03:20:07.883Z,10
2019-03-27T03:22:21.938Z,9.3
2019-03-27T03:24:35.930Z,9.1
2019-03-27T03:26:51.087Z,8.6
2019-03-27T03:29:14.294Z,8.4
2019-03-27T03:31:28.220Z,8.1
2019-03-27T03:33:52.336Z,7.1
2019-03-27T03:36:16.952Z,7.8
2019-03-27T03:38:32.687Z,9.3
2019-03-27T03:40:46.726Z,7.9
2019-03-27T03:43:00.710Z,8.3
2019-03-27T03:45:14.738Z,7.8
2019-03-27T03:47:37.042Z,9.2
2019-03-27T03:49:50.927Z,8.4
2019-03-27T03:52:04.747Z,8.3
2019-03-27T03:54:18.591Z,8.8
2019-03-27T03:56:32.439Z,8.7
2019-03-27T03:58:46.218Z,8.1
2019-03-27T04:01:00.114Z,8.5
2019-03-27T04:03:13.910Z,7.7
2019-03-27T04:05:27.706Z,9.2
2019-03-27T04:07:42.621Z,8.7
2019-03-27T04:09:56.479Z,8.3
2019-03-27T04:12:10.279Z,8
2019-03-27T04:14:24.124Z,8.3
2019-03-27T04:16:37.942Z,7.3
2019-03-27T04:18:51.739Z,7.8
2019-03-27T04:21:05.561Z,7.9
2019-03-27T04:23:19.420Z,7.9
2019-03-27T04:26:00.241Z,8.2
2019-03-27T04:27:48.214Z,8.3
2019-03-27T04:30:03.038Z,10.6
2019-03-27T04:32:16.842Z,9.7
2019-03-27T04:34:30.618Z,9
2019-03-27T04:36:44.471Z,9.4
2019-03-27T04:38:58.266Z,9.3
2019-03-27T04:41:12.060Z,9.8
2019-03-27T04:43:25.995Z,11.1
2019-03-27T04:45:39.832Z,10.2
2019-03-27T04:47:53.662Z,10.9
2019-03-27T04:50:07.473Z,10
2019-03-27T04:52:21.480Z,9.9
2019-03-27T04:54:35.427Z,9.7
2019-03-27T04:56:49.375Z,10.2
2019-03-27T04:59:03.284Z,9.9
2019-03-27T05:01:17.192Z,10.4
2019-03-27T05:03:31.150Z,9.7
2019-03-27T05:05:45.132Z,9.9
2019-03-27T05:07:59.077Z,9.4
2019-03-27T05:10:12.922Z,9.3
2019-03-27T05:12:26.777Z,10.3
2019-03-27T05:14:40.730Z,9.3
2019-03-27T05:16:54.621Z,9.5
2019-03-27T05:19:08.516Z,9.4
2019-03-27T05:21:22.430Z,9.8
2019-03-27T05:23:36.369Z,9.9
2019-03-27T05:25:50.301Z,9.2
2019-03-27T05:28:04.196Z,9.6
2019-03-27T05:30:18.160Z,9.7
2019-03-27T05:32:32.113Z,10.5
2019-03-27T05:34:46.009Z,10.5
2019-03-27T05:36:59.899Z,10.5
2019-03-27T05:39:14.780Z,9.1
2019-03-27T05:41:28.236Z,9.8
2019-03-27T05:43:42.212Z,9.6
2019-03-27T05:45:56.079Z,10.7
2019-03-27T05:48:10.003Z,10.2
2019-03-27T05:50:23.852Z,11
2019-03-27T05:52:37.665Z,10
2019-03-27T05:54:51.436Z,10.6
2019-03-27T05:57:05.222Z,10.2
2019-03-27T05:59:19.098Z,10.3
2019-03-27T06:01:33.022Z,11.6
2019-03-27T06:03:46.992Z,11.5
2019-03-27T06:06:00.912Z,10.9
2019-03-27T06:08:14.834Z,12
2019-03-27T06:10:28.700Z,12.9
2019-03-27T06:12:42.628Z,13.3
2019-03-27T06:14:56.501Z,12.6
2019-03-27T06:17:10.394Z,12.9
2019-03-27T06:19:24.327Z,13.7
2019-03-27T06:21:38.298Z,13
2019-03-27T06:23:52.215Z,12.2
2019-03-27T06:26:06.162Z,12.9
2019-03-27T06:28:20.066Z,13
2019-03-27T06:30:34.041Z,12.9
2019-03-27T06:32:47.958Z,13.8
2019-03-27T06:35:01.894Z,12.7
2019-03-27T06:37:15.774Z,13.5
2019-03-27T06:39:29.678Z,13.6
2019-03-27T06:41:43.462Z,12.5
2019-03-27T06:43:57.463Z,11.9
2019-03-27T06:46:11.378Z,12
2019-03-27T06:48:26.310Z,11.2
2019-03-27T06:50:39.134Z,10.3
2019-03-27T06:52:53.029Z,11.5
2019-03-27T06:55:06.961Z,10.6
2019-03-27T06:57:20.828Z,10.7
2019-03-27T06:59:34.665Z,10.9
2019-03-27T07:01:48.504Z,10.9
2019-03-27T07:04:10.161Z,11.6
2019-03-27T07:06:17.189Z,11.3
2019-03-27T07:08:31.071Z,11.6
2019-03-27T07:10:44.931Z,11.5
2019-03-27T07:12:58.839Z,11
2019-03-27T07:14:14.668Z,0
2019-03-27T07:16:28.563Z,11.3
2019-03-27T07:18:42.352Z,12.1
2019-03-27T07:20:56.109Z,12.7
2019-03-27T07:23:09.870Z,13
2019-03-27T07:25:23.770Z,13.8
2019-03-27T07:27:37.562Z,13.1
2019-03-27T07:29:52.373Z,13
2019-03-27T07:32:06.317Z,16.1
2019-03-27T07:34:20.082Z,14.9
2019-03-27T07:36:34.028Z,17.200001
2019-03-27T07:38:47.885Z,17.700001
2019-03-27T07:41:01.738Z,16.5
2019-03-27T07:43:15.654Z,17.5
2019-03-27T07:45:29.488Z,19.799999
2019-03-27T07:47:43.294Z,20.6
2019-03-27T07:49:57.154Z,20.6
2019-03-27T07:52:10.923Z,19.4
2019-03-27T07:54:24.687Z,19.9
2019-03-27T07:56:38.510Z,21.4
2019-03-27T07:58:52.259Z,20.200001
2019-03-27T08:01:07.026Z,19.9
2019-03-27T08:03:20.811Z,20.200001
2019-03-27T08:05:34.584Z,21.299999
2019-03-27T08:07:48.426Z,19.200001
2019-03-27T08:10:02.258Z,21.200001
2019-03-27T08:12:16.077Z,20.200001
2019-03-27T08:14:30.877Z,21.9
2019-03-27T08:16:51.858Z,22.1
2019-03-27T08:19:07.614Z,23
2019-03-27T08:21:19.556Z,20.9
2019-03-27T08:23:33.440Z,21.200001
2019-03-27T08:25:47.316Z,21.1
2019-03-27T08:28:01.125Z,20.9
2019-03-27T08:30:15.056Z,21.6
2019-03-27T08:32:28.831Z,19.5
2019-03-27T08:34:42.571Z,19.700001
2019-03-27T08:36:56.401Z,17.4
2019-03-27T08:39:10.207Z,17.9
2019-03-27T08:41:24.019Z,17
2019-03-27T08:43:37.851Z,19.1
2019-03-27T08:45:51.688Z,18.299999
2019-03-27T08:48:05.487Z,19.200001
2019-03-27T08:50:19.442Z,17.6
2019-03-27T08:52:33.800Z,15.6
2019-03-27T08:54:47.607Z,14.8
2019-03-27T08:57:01.591Z,14.8
2019-03-27T08:59:15.540Z,15.2
2019-03-27T09:01:29.356Z,15.9
2019-03-27T09:03:43.183Z,14
2019-03-27T09:05:57.051Z,14.5
2019-03-27T09:08:10.889Z,14
2019-03-27T09:10:24.701Z,14.3
2019-03-27T09:12:38.635Z,13.4
2019-03-27T09:14:52.516Z,13.3
2019-03-27T09:17:06.774Z,12.4
2019-03-27T09:19:35.333Z,11.4
2019-03-27T09:20:43.635Z,0
2019-03-27T09:22:57.919Z,11.5
2019-03-27T09:25:11.857Z,8.3
2019-03-27T09:27:25.709Z,7.7
2019-03-27T09:29:39.641Z,9
2019-03-27T09:31:53.584Z,8.5
2019-03-27T09:34:07.501Z,8.6
2019-03-27T09:36:21.437Z,8.1
2019-03-27T09:38:43.822Z,7.9
2019-03-27T09:40:57.546Z,7.8
2019-03-27T09:43:11.460Z,7.6
2019-03-27T09:45:25.326Z,8.6
2019-03-27T09:47:47.310Z,9
2019-03-27T09:50:09.259Z,9.1
2019-03-27T09:52:23.131Z,9.7
2019-03-27T09:54:37.059Z,9.4
2019-03-27T09:56:50.958Z,8.4
2019-03-27T09:59:30.342Z,8.8
2019-03-27T10:01:44.669Z,8.9
2019-03-27T10:03:58.641Z,7.8
2019-03-27T10:06:12.574Z,7.2
2019-03-27T10:08:26.455Z,7.1
2019-03-27T10:10:40.385Z,6.7
2019-03-27T10:12:54.254Z,6.1
2019-03-27T10:15:08.131Z,5.7
2019-03-27T10:17:22.004Z,3.7
2019-03-27T10:19:36.171Z,3.7
2019-03-27T10:21:50.064Z,3.8
2019-03-27T10:24:03.902Z,5.2
2019-03-27T10:26:18.000Z,6.3
2019-03-27T10:28:31.886Z,7.2
2019-03-27T10:30:45.719Z,7.6
2019-03-27T10:32:59.737Z,7
2019-03-27T10:35:13.620Z,6.3
2019-03-27T10:37:27.505Z,5.4
2019-03-27T10:39:41.418Z,5.1
2019-03-27T10:41:55.271Z,4.8
2019-03-27T10:44:09.114Z,4.5
2019-03-27T10:46:23.013Z,4.6
2019-03-27T10:48:36.902Z,4.6
2019-03-27T10:50:51.771Z,6
2019-03-27T10:53:05.693Z,7.4
2019-03-27T10:55:19.560Z,6.2
2019-03-27T10:57:33.436Z,6
2019-03-27T10:59:47.327Z,7.7
2019-03-27T11:02:01.181Z,6.1
2019-03-27T11:04:15.069Z,6.4
2019-03-27T11:06:28.957Z,8.2
2019-03-27T11:08:42.794Z,10.3
2019-03-27T11:10:56.676Z,9.7
2019-03-27T11:13:10.601Z,7.4
2019-03-27T11:15:24.481Z,7.8
2019-03-27T11:17:38.376Z,8.9
2019-03-27T11:19:52.276Z,8.8
2019-03-27T11:22:06.121Z,8.7
2019-03-27T11:24:19.996Z,8.6
2019-03-27T11:26:33.929Z,8.5
2019-03-27T11:28:47.846Z,7.9
2019-03-27T11:31:01.795Z,7.9
2019-03-27T11:33:15.647Z,7.8
2019-03-27T11:35:29.548Z,7
2019-03-27T11:37:43.383Z,7.6
2019-03-27T11:39:57.224Z,7.3
2019-03-27T11:42:11.134Z,6.8
2019-03-27T11:44:24.978Z,7.4
2019-03-27T11:46:38.833Z,7.3
2019-03-27T11:48:52.679Z,7
2019-03-27T11:51:06.521Z,6.7
2019-03-27T11:53:28.480Z,7.6
2019-03-27T11:55:50.309Z,7.6
2019-03-27T11:58:14.755Z,8.3
2019-03-27T11:59:20.985Z,0
2019-03-27T12:06:58.892Z,0
2019-03-27T13:00:26.792Z,0
2019-03-27T13:02:40.986Z,9
2019-03-27T13:04:54.861Z,8.5
2019-03-27T13:07:08.754Z,9.6
2019-03-27T13:15:11.331Z,0
2019-03-27T13:17:25.196Z,8.8
2019-03-27T13:19:40.581Z,9.5
2019-03-27T13:21:54.804Z,9.3
2019-03-27T13:24:08.879Z,9.5
2019-03-27T13:26:22.862Z,9.7
2019-03-27T13:28:48.075Z,9.9
2019-03-27T13:30:51.556Z,9.6
2019-03-27T13:33:05.951Z,9.8
2019-03-27T13:35:20.160Z,11.5
2019-03-27T13:37:34.183Z,11.6
2019-03-27T13:39:48.024Z,11.5
2019-03-27T13:42:01.818Z,11.5
2019-03-27T13:44:15.847Z,11.5
2019-03-27T13:46:29.627Z,10.8
2019-03-27T13:48:43.421Z,10.9
2019-03-27T13:50:57.226Z,10.9
2019-03-27T13:53:11.007Z,11.7
2019-03-27T13:55:25.788Z,10.9
2019-03-27T13:57:39.605Z,10.4
2019-03-27T13:59:53.370Z,10.5
2019-03-27T14:02:07.146Z,9.6
2019-03-27T14:04:21.978Z,10.4
2019-03-27T14:06:35.824Z,9.9
2019-03-27T14:08:50.692Z,9.6
2019-03-27T14:11:04.562Z,9.4
2019-03-27T14:13:18.451Z,9.5
2019-03-27T14:15:32.261Z,9.6
2019-03-27T14:17:46.071Z,9.1
2019-03-27T14:19:59.958Z,9.1
2019-03-27T14:22:13.891Z,9.2
2019-03-27T14:24:27.715Z,9
2019-03-27T14:26:45.211Z,8.9
2019-03-27T14:28:55.405Z,9.7
2019-03-27T14:31:09.252Z,10.2
2019-03-27T14:33:23.302Z,10.4
2019-03-27T14:35:37.166Z,9.9
2019-03-27T14:37:51.000Z,10.7
2019-03-27T14:40:05.039Z,9.2
2019-03-27T14:42:19.893Z,10.2
2019-03-27T14:44:33.713Z,10
2019-03-27T14:46:47.757Z,9.9
2019-03-27T14:49:01.731Z,9.9
2019-03-27T14:51:15.539Z,9.4
2019-03-27T14:53:29.385Z,9.3
2019-03-27T14:55:43.545Z,9.9
2019-03-27T14:57:57.426Z,9.9
2019-03-27T15:00:11.222Z,9.7
2019-03-27T15:02:27.847Z,9.1
2019-03-27T15:04:41.982Z,8.9
2019-03-27T15:06:55.797Z,9.3
2019-03-27T15:09:09.896Z,9.5
2019-03-27T15:11:23.698Z,8.6
2019-03-27T15:13:37.497Z,8.9
2019-03-27T15:15:51.366Z,8.8
2019-03-27T15:18:05.117Z,8.6
2019-03-27T15:20:18.860Z,8.3
2019-03-27T15:22:32.790Z,8
2019-03-27T15:24:46.556Z,7.8
2019-03-27T15:27:00.341Z,8.7
2019-03-27T15:29:14.149Z,9.3
2019-03-27T15:31:27.949Z,9.2
2019-03-27T15:33:41.729Z,9.6
2019-03-27T15:35:55.632Z,8.3
2019-03-27T15:38:09.375Z,8.8
2019-03-27T15:40:23.127Z,8.7
2019-03-27T15:42:37.445Z,9
2019-03-27T15:44:50.696Z,9.5
2019-03-27T15:47:04.482Z,8.9
2019-03-27T15:49:18.295Z,8.8
2019-03-27T15:51:32.123Z,10.1
2019-03-27T15:53:47.273Z,9.3
2019-03-27T15:55:59.690Z,10.3
2019-03-27T15:58:13.478Z,9.8
2019-03-27T16:00:27.281Z,9.7
2019-03-27T16:02:41.275Z,10.2
2019-03-27T16:04:55.020Z,10.4
2019-03-27T16:07:08.795Z,10.3
2019-03-27T16:09:22.848Z,9.9
2019-03-27T16:11:36.634Z,9.6
2019-03-27T16:13:50.419Z,10.4
2019-03-27T16:16:04.229Z,11.9
2019-03-27T16:18:17.992Z,10.6
2019-03-27T16:20:31.770Z,10.7
2019-03-27T16:22:50.777Z,9.7
2019-03-27T16:25:00.279Z,9.9
2019-03-27T16:27:14.039Z,10
2019-03-27T16:29:27.828Z,10.5
2019-03-27T16:31:41.555Z,10.8
2019-03-27T16:33:55.318Z,10.8
2019-03-27T16:36:09.094Z,10.3
2019-03-27T16:38:22.855Z,10.3
2019-03-27T16:40:36.565Z,10.5
2019-03-27T16:42:50.354Z,10.3
2019-03-27T16:45:04.095Z,10.7
2019-03-27T16:47:17.849Z,11
2019-03-27T16:49:31.578Z,11
2019-03-27T16:51:45.325Z,11.6
2019-03-27T16:53:59.154Z,11
2019-03-27T16:56:12.967Z,12
2019-03-27T16:58:28.063Z,10.5
2019-03-27T17:00:42.463Z,10.7
2019-03-27T17:02:56.482Z,10.6
2019-03-27T17:05:10.558Z,10.4
2019-03-27T17:07:25.309Z,9.8
2019-03-27T17:09:39.053Z,11.1
2019-03-27T17:11:52.828Z,9.8
2019-03-27T17:14:06.643Z,9.8
2019-03-27T17:16:20.400Z,9.4
2019-03-27T17:18:34.184Z,9.5
2019-03-27T17:20:47.968Z,9.5
2019-03-27T17:23:01.713Z,9.1
2019-03-27T17:25:16.465Z,9.8
2019-03-27T17:27:30.302Z,9.1
2019-03-27T17:29:44.082Z,8.9
2019-03-27T17:31:57.838Z,9.1
2019-03-27T17:34:11.639Z,8.4
2019-03-27T17:36:25.376Z,8.7
2019-03-27T17:38:39.123Z,8.2
2019-03-27T17:40:52.946Z,8.5
2019-03-27T17:43:06.654Z,8
2019-03-27T17:45:20.424Z,8.1
2019-03-27T17:47:34.217Z,7.7
2019-03-27T17:49:47.955Z,7.2
2019-03-27T17:52:01.723Z,7.1
2019-03-27T17:54:20.600Z,6.7
2019-03-27T17:56:30.189Z,6.5
2019-03-27T17:58:43.965Z,6.7
2019-03-27T18:00:57.789Z,6.3
2019-03-27T18:03:11.580Z,6.4
2019-03-27T18:05:25.407Z,6
2019-03-27T18:07:39.321Z,6.2
2019-03-27T18:09:53.141Z,6.3
2019-03-27T18:12:07.002Z,6.8
2019-03-27T18:14:20.901Z,6.1
2019-03-27T18:16:34.738Z,6.5
2019-03-27T18:18:48.608Z,6.3
2019-03-27T18:21:02.490Z,6.3
2019-03-27T18:23:16.314Z,6.3
2019-03-27T18:25:30.159Z,6
2019-03-27T18:27:44.014Z,6.6
2019-03-27T18:30:07.864Z,6.7
2019-03-27T18:32:22.459Z,6.3
2019-03-27T18:34:36.459Z,6.5
2019-03-27T18:36:50.574Z,6.8
2019-03-27T18:39:04.621Z,6.8
2019-03-27T18:41:18.721Z,6.7
2019-03-27T18:43:32.749Z,6.3
2019-03-27T18:45:46.944Z,6.7
2019-03-27T18:48:00.939Z,6.8
2019-03-27T18:50:14.842Z,7.2
2019-03-27T18:52:28.752Z,8.3
2019-03-27T18:54:42.831Z,8
2019-03-27T18:56:56.841Z,7.6
2019-03-27T18:59:10.806Z,7.2
2019-03-27T19:01:24.701Z,6.8
2019-03-27T19:03:38.625Z,6.5
2019-03-27T19:05:52.511Z,7.6
2019-03-27T19:08:06.418Z,7.2
2019-03-27T19:10:20.285Z,7.2
2019-03-27T19:12:34.536Z,7.5
2019-03-27T19:14:49.432Z,8.1
2019-03-27T19:17:03.312Z,8.5
2019-03-27T19:19:17.636Z,8.5
2019-03-27T19:21:31.715Z,8.9
2019-03-27T19:23:45.529Z,8.3
2019-03-27T19:25:59.675Z,8.2
2019-03-27T19:28:13.582Z,8.9
2019-03-27T19:30:27.517Z,9.5
2019-03-27T19:32:41.568Z,9.7
2019-03-27T19:34:55.535Z,10.2
2019-03-27T19:37:09.450Z,9.4
2019-03-27T19:39:23.481Z,9.7
2019-03-27T19:41:37.321Z,8.9
2019-03-27T19:43:52.212Z,8.8
2019-03-27T19:46:06.111Z,8.4
2019-03-27T19:48:20.154Z,8.5
2019-03-27T19:50:33.964Z,8.6
2019-03-27T19:52:47.855Z,10.6
2019-03-27T19:55:01.794Z,11.5
2019-03-27T19:57:15.652Z,10.1
2019-03-27T19:59:29.630Z,10
2019-03-27T20:01:43.499Z,9.6
2019-03-27T20:03:57.321Z,9.6
2019-03-27T20:06:11.168Z,9.4
2019-03-27T20:08:25.016Z,9
2019-03-27T20:10:38.886Z,9
2019-03-27T20:12:52.832Z,8
2019-03-27T20:15:12.044Z,8.6
2019-03-27T20:17:21.722Z,8.4
2019-03-27T20:19:35.677Z,8.4
2019-03-27T20:21:49.562Z,7.5
2019-03-27T20:24:03.342Z,7.5
2019-03-27T20:26:17.131Z,8.9
2019-03-27T20:28:30.893Z,8.4
2019-03-27T20:30:44.686Z,8.1
2019-03-27T20:32:58.485Z,7.9
2019-03-27T20:35:12.248Z,7.9
2019-03-27T20:37:25.992Z,8.4
2019-03-27T20:39:42.490Z,7.9
2019-03-27T20:41:54.513Z,8
2019-03-27T20:44:08.314Z,8.1
2019-03-27T20:46:25.344Z,8
2019-03-27T20:48:36.813Z,8
2019-03-27T20:50:51.570Z,7.2
2019-03-27T20:53:05.443Z,8.1
2019-03-27T20:55:29.520Z,8.2
2019-03-27T20:57:33.950Z,7.6
2019-03-27T20:59:47.763Z,7.9
2019-03-27T21:02:01.513Z,7.5
2019-03-27T21:04:15.312Z,7.7
2019-03-27T21:06:29.122Z,8.3
2019-03-27T21:08:42.932Z,9
2019-03-27T21:10:56.716Z,8.7
2019-03-27T21:13:10.506Z,8.7
2019-03-27T21:15:24.266Z,7.9
2019-03-27T21:17:38.029Z,8.7
2019-03-27T21:19:51.829Z,8.9
2019-03-27T21:22:06.552Z,9.6
2019-03-27T21:24:20.313Z,7.7
2019-03-27T21:26:34.143Z,8.6
2019-03-27T21:28:47.883Z,8.6
2019-03-27T21:31:01.654Z,8
2019-03-27T21:33:15.428Z,8.5
2019-03-27T21:35:29.175Z,8.9
2019-03-27T21:37:42.968Z,9.2
2019-03-27T21:39:56.919Z,9
2019-03-27T21:42:10.715Z,9.2
2019-03-27T21:44:24.503Z,9.6
2019-03-27T21:46:38.550Z,9.8
2019-03-27T21:48:52.319Z,9.3
2019-03-27T21:51:06.083Z,10.1
2019-03-27T21:53:20.027Z,11.1
2019-03-27T21:55:42.415Z,9.7
2019-03-27T21:57:48.508Z,10.6
2019-03-27T22:00:02.501Z,10.3
2019-03-27T22:02:16.262Z,10.9
2019-03-27T22:04:30.203Z,10.9
2019-03-27T22:06:44.170Z,10.6
2019-03-27T22:08:57.941Z,10.4
2019-03-27T22:11:11.711Z,10.3
2019-03-27T22:13:26.749Z,11
2019-03-27T22:15:40.516Z,9.8
2019-03-27T22:17:54.285Z,9.9
2019-03-27T22:20:08.081Z,10.5
2019-03-27T22:22:21.836Z,10
2019-03-27T22:24:36.584Z,9.5
2019-03-27T22:26:50.361Z,9.7
2019-03-27T22:29:04.096Z,10
2019-03-27T22:31:17.872Z,9.7
2019-03-27T22:33:31.670Z,10.5
2019-03-27T22:35:45.407Z,10.4
2019-03-27T22:37:59.160Z,10.5
2019-03-27T22:40:13.032Z,10.1
2019-03-27T22:42:26.725Z,10.2
2019-03-27T22:44:40.467Z,10
2019-03-27T22:46:54.289Z,10.3
2019-03-27T22:49:08.039Z,10.1
2019-03-27T22:51:21.798Z,10.8
2019-03-27T22:53:35.577Z,9.9
2019-03-27T22:55:50.515Z,9.7
2019-03-27T22:58:03.093Z,9.9
2019-03-27T23:00:16.873Z,10.3
2019-03-27T23:02:30.637Z,10.3
2019-03-27T23:04:44.408Z,10.8
2019-03-27T23:06:58.189Z,10.5
2019-03-27T23:09:11.928Z,10.3
2019-03-27T23:11:25.706Z,9.7
2019-03-27T23:13:39.497Z,10
2019-03-27T23:15:53.253Z,10.1
2019-03-27T23:18:07.016Z,10.5
2019-03-27T23:20:20.803Z,10.5
2019-03-27T23:22:34.565Z,10.7
2019-03-27T23:24:48.339Z,10.5
2019-03-27T23:27:03.133Z,9.6
2019-03-27T23:29:16.873Z,10.4
2019-03-27T23:31:30.685Z,10.9
2019-03-27T23:33:44.488Z,11.3
2019-03-27T23:35:58.243Z,10.5
2019-03-27T23:38:12.000Z,11
2019-03-27T23:40:25.784Z,10.7
2019-03-27T23:42:39.562Z,9.9
2019-03-27T23:44:53.304Z,10.2
2019-03-27T23:47:07.102Z,11
2019-03-27T23:49:20.848Z,10.2
2019-03-27T23:51:34.615Z,10.2
2019-03-27T23:53:48.409Z,9.5
2019-03-27T23:56:15.510Z,9.9
2019-03-27T23:58:16.898Z,10.8
